createdAt,value
2022-11-21T00:02:18.879Z,100196.31
2022-11-21T00:04:47.207Z,100189.06
2022-11-21T00:07:15.223Z,100187.38
2022-11-21T00:09:43.618Z,100177.03
2022-11-21T00:12:12.140Z,100175.72
2022-11-21T00:14:40.440Z,100161.03
2022-11-21T00:17:08.507Z,100171.84
2022-11-21T00:19:36.797Z,100174.22
2022-11-21T00:22:04.838Z,100173.59
2022-11-21T00:24:33.707Z,100181.59
2022-11-21T00:27:01.720Z,100180.50
2022-11-21T00:29:30.659Z,100193.94
2022-11-21T00:31:59.306Z,100191.81
2022-11-21T00:34:28.083Z,100195.09
2022-11-21T00:36:56.239Z,100198.41
2022-11-21T00:39:24.578Z,100206.63
2022-11-21T00:41:52.559Z,100196.09
2022-11-21T00:44:20.867Z,100193.28
2022-11-21T00:46:48.971Z,100186.88
2022-11-21T00:49:18.058Z,100190.16
2022-11-21T00:51:46.106Z,100191.28
2022-11-21T00:54:16.476Z,100193.41
2022-11-21T00:56:44.448Z,100197.59
2022-11-21T00:59:12.767Z,100190.25
2022-11-21T01:01:40.845Z,100191.38
2022-11-21T01:04:09.246Z,100186.06
2022-11-21T01:06:40.615Z,100186.38
2022-11-21T01:09:09.017Z,100189.19
2022-11-21T01:11:37.137Z,100187.31
2022-11-21T01:14:05.718Z,100179.47
2022-11-21T01:16:34.217Z,100171.41
2022-11-21T01:19:02.595Z,100176.47
2022-11-21T01:21:32.198Z,100172.69
2022-11-21T01:24:03.037Z,100161.16
2022-11-21T01:26:33.476Z,100159.41
2022-11-21T01:29:01.780Z,100168.22
2022-11-21T01:31:32.438Z,100167.13
2022-11-21T01:34:01.772Z,100172.00
2022-11-21T01:36:32.753Z,100172.72
2022-11-21T01:39:04.113Z,100188.56
2022-11-21T01:41:38.446Z,100189.59
2022-11-21T01:44:21.956Z,100192.50
2022-11-21T01:46:51.972Z,100193.59
2022-11-21T01:49:32.860Z,100199.50
2022-11-21T01:52:12.245Z,100191.91
2022-11-21T01:54:58.714Z,100202.66
2022-11-21T01:57:38.412Z,100194.59
2022-11-21T02:00:11.842Z,100183.53
2022-11-21T02:02:47.193Z,100198.56
2022-11-21T02:05:24.302Z,100194.84
2022-11-21T02:07:57.607Z,100190.16
2022-11-21T02:10:27.972Z,100190.31
2022-11-21T02:12:58.672Z,100189.94
2022-11-21T02:15:29.483Z,100194.38
2022-11-21T02:17:57.472Z,100191.72
2022-11-21T02:20:28.911Z,100181.94
2022-11-21T02:23:14.223Z,100178.47
2022-11-21T02:25:43.832Z,100177.09
2022-11-21T02:28:17.162Z,100184.53
2022-11-21T02:30:47.213Z,100186.06
2022-11-21T02:33:16.114Z,100178.13
2022-11-21T02:35:45.621Z,100179.53
2022-11-21T02:38:31.240Z,100178.25
2022-11-21T02:41:07.164Z,100171.13
2022-11-21T02:43:47.036Z,100166.34
2022-11-21T02:46:15.345Z,100168.66
2022-11-21T02:48:43.964Z,100158.44
2022-11-21T02:51:12.182Z,100158.94
2022-11-21T02:53:40.098Z,100153.13
2022-11-21T02:56:08.450Z,100142.56
2022-11-21T02:58:37.050Z,100140.44
2022-11-21T03:01:06.039Z,100135.72
2022-11-21T03:03:34.059Z,100133.84
2022-11-21T03:06:02.466Z,100135.25
2022-11-21T03:08:30.533Z,100134.41
2022-11-21T03:10:58.751Z,100128.97
2022-11-21T03:13:27.458Z,100122.47
2022-11-21T03:15:55.801Z,100118.25
2022-11-21T03:18:24.405Z,100119.34
2022-11-21T03:20:53.080Z,100107.44
2022-11-21T03:23:21.092Z,100112.16
2022-11-21T03:25:51.033Z,100115.72
2022-11-21T03:28:19.383Z,100109.31
2022-11-21T03:30:47.893Z,100107.16
2022-11-21T03:33:15.911Z,100112.88
2022-11-21T03:35:44.294Z,100111.69
2022-11-21T03:38:12.264Z,100117.41
2022-11-21T03:40:40.533Z,100113.47
2022-11-21T03:43:08.683Z,100113.25
2022-11-21T03:45:38.182Z,100109.78
2022-11-21T03:48:06.543Z,100105.31
2022-11-21T03:50:34.804Z,100110.81
2022-11-21T03:53:02.784Z,100102.53
2022-11-21T03:55:31.173Z,100098.69
2022-11-21T03:57:59.334Z,100094.94
2022-11-21T04:00:27.645Z,100085.47
2022-11-21T04:02:55.624Z,100079.38
2022-11-21T04:05:25.244Z,100086.91
2022-11-21T04:07:54.488Z,100084.69
2022-11-21T04:10:22.743Z,100085.69
2022-11-21T04:12:50.734Z,100089.69
2022-11-21T04:15:20.155Z,100090.44
2022-11-21T04:17:48.824Z,100090.22
2022-11-21T04:20:17.244Z,100088.56
2022-11-21T04:22:45.289Z,100101.00
2022-11-21T04:25:14.194Z,100105.25
2022-11-21T04:27:42.213Z,100091.47
2022-11-21T04:30:11.242Z,100090.28
2022-11-21T04:32:39.233Z,100112.88
2022-11-21T04:35:09.161Z,100099.09
2022-11-21T04:37:39.874Z,100098.50
2022-11-21T04:40:08.673Z,100089.13
2022-11-21T04:42:36.816Z,100095.19
2022-11-21T04:45:06.333Z,100089.25
2022-11-21T04:47:40.924Z,100086.72
2022-11-21T04:50:11.884Z,100080.81
2022-11-21T04:52:40.153Z,100080.03
2022-11-21T04:55:09.606Z,100089.72
2022-11-21T04:57:37.683Z,100085.28
2022-11-21T05:00:06.658Z,100087.63
2022-11-21T05:02:34.650Z,100094.31
2022-11-21T05:05:02.940Z,100096.69
2022-11-21T05:07:30.919Z,100093.00
2022-11-21T05:09:59.315Z,100098.69
2022-11-21T05:12:45.844Z,100094.03
2022-11-21T05:15:14.123Z,100093.16
2022-11-21T05:17:42.156Z,100095.78
2022-11-21T05:20:11.653Z,100089.22
2022-11-21T05:22:39.704Z,100080.81
2022-11-21T05:25:08.435Z,100088.72
2022-11-21T05:27:36.382Z,100092.16
2022-11-21T05:30:05.785Z,100090.03
2022-11-21T05:32:33.793Z,100085.97
2022-11-21T05:35:02.353Z,100078.44
2022-11-21T05:37:31.443Z,100075.97
2022-11-21T05:39:59.994Z,100075.88
2022-11-21T05:42:47.484Z,100074.72
2022-11-21T05:45:15.936Z,100072.06
2022-11-21T05:47:43.926Z,100069.88
2022-11-21T05:50:13.487Z,100059.69
2022-11-21T05:52:41.564Z,100050.56
2022-11-21T05:55:09.843Z,100053.31
2022-11-21T05:57:37.823Z,100061.38
2022-11-21T06:00:06.856Z,100054.22
2022-11-21T06:02:53.692Z,100052.41
2022-11-21T06:05:21.972Z,100060.94
2022-11-21T06:07:49.927Z,100066.13
2022-11-21T06:10:18.272Z,100073.91
2022-11-21T06:12:46.274Z,100071.25
2022-11-21T06:15:14.625Z,100074.09
2022-11-21T06:17:42.593Z,100075.13
2022-11-21T06:20:12.133Z,100075.78
2022-11-21T06:22:40.174Z,100069.19
2022-11-21T06:25:08.823Z,100058.38
2022-11-21T06:27:36.779Z,100057.69
2022-11-21T06:30:07.534Z,100051.72
2022-11-21T06:32:38.975Z,100048.97
2022-11-21T06:35:07.841Z,100045.94
2022-11-21T06:37:35.875Z,100051.00
2022-11-21T06:40:04.565Z,100058.00
2022-11-21T06:42:33.903Z,100045.47
2022-11-21T06:45:02.244Z,100062.13
2022-11-21T06:47:35.236Z,100070.84
2022-11-21T06:50:03.892Z,100077.63
2022-11-21T06:52:35.816Z,100072.25
2022-11-21T06:55:04.414Z,100057.34
2022-11-21T06:57:33.225Z,100066.81
2022-11-21T07:00:02.280Z,100069.19
2022-11-21T07:02:30.335Z,100071.88
2022-11-21T07:04:58.764Z,100073.53
2022-11-21T07:07:26.851Z,100081.94
2022-11-21T07:09:55.343Z,100080.44
2022-11-21T07:12:42.114Z,100083.97
2022-11-21T07:15:11.234Z,100095.91
2022-11-21T07:17:39.337Z,100083.94
2022-11-21T07:20:08.294Z,100093.53
2022-11-21T07:22:36.474Z,100094.38
2022-11-21T07:25:05.144Z,100097.59
2022-11-21T07:27:33.336Z,100101.97
2022-11-21T07:30:01.643Z,100106.34
2022-11-21T07:32:29.788Z,100097.09
2022-11-21T07:34:58.123Z,100113.88
2022-11-21T07:37:26.233Z,100117.31
2022-11-21T07:39:54.715Z,100111.28
2022-11-21T07:42:22.693Z,100123.19
2022-11-21T07:44:52.305Z,100123.88
2022-11-21T07:47:20.385Z,100129.66
2022-11-21T07:49:49.905Z,100118.03
2022-11-21T07:52:18.013Z,100111.41
2022-11-21T07:54:46.373Z,100116.66
2022-11-21T07:57:14.364Z,100113.25
2022-11-21T07:59:42.933Z,100106.84
2022-11-21T08:02:25.583Z,100106.84
2022-11-21T08:04:55.346Z,100113.13
2022-11-21T08:07:24.853Z,100116.25
2022-11-21T08:09:53.265Z,100108.94
2022-11-21T08:12:21.364Z,100117.22
2022-11-21T08:14:49.680Z,100109.31
2022-11-21T08:17:18.790Z,100111.75
2022-11-21T08:19:47.233Z,100121.22
2022-11-21T08:22:15.233Z,100118.03
2022-11-21T08:24:43.563Z,100121.75
2022-11-21T08:27:12.214Z,100113.91
2022-11-21T08:29:40.524Z,100105.78
2022-11-21T08:32:08.644Z,100107.00
2022-11-21T08:34:36.998Z,100105.81
2022-11-21T08:37:05.245Z,100113.94
2022-11-21T08:39:33.535Z,100098.28
2022-11-21T08:42:04.544Z,100104.97
2022-11-21T08:44:34.859Z,100103.69
2022-11-21T08:47:03.072Z,100095.41
2022-11-21T08:49:32.634Z,100089.78
2022-11-21T08:52:00.637Z,100102.44
2022-11-21T08:54:30.437Z,100092.25
2022-11-21T08:56:58.753Z,100096.34
2022-11-21T08:59:27.148Z,100094.13
2022-11-21T09:01:55.431Z,100096.16
2022-11-21T09:04:23.877Z,100079.50
2022-11-21T09:06:51.884Z,100078.19
2022-11-21T09:09:25.065Z,100086.31
2022-11-21T09:11:53.775Z,100074.38
2022-11-21T09:14:42.475Z,100077.38
2022-11-21T09:17:33.079Z,100068.25
2022-11-21T09:20:01.591Z,100090.19
2022-11-21T09:22:29.676Z,100090.22
2022-11-21T09:24:58.034Z,100101.38
2022-11-21T09:27:26.043Z,100091.81
2022-11-21T09:29:54.533Z,100093.25
2022-11-21T09:32:23.286Z,100085.09
2022-11-21T09:34:52.745Z,100086.94
2022-11-21T09:37:20.722Z,100088.09
2022-11-21T09:39:49.164Z,100093.38
2022-11-21T09:42:41.372Z,100077.59
2022-11-21T09:45:25.269Z,100071.88
2022-11-21T09:47:53.962Z,100077.03
2022-11-21T09:50:36.103Z,100067.78
2022-11-21T09:53:07.872Z,100055.06
2022-11-21T09:55:36.072Z,100063.44
2022-11-21T09:58:27.081Z,100063.88
2022-11-21T10:00:55.661Z,100063.22
2022-11-21T10:03:27.652Z,100056.19
2022-11-21T10:06:07.414Z,100056.84
2022-11-21T10:08:48.332Z,100057.28
2022-11-21T10:12:17.293Z,100066.72
2022-11-21T10:14:54.322Z,100064.00
2022-11-21T10:17:37.692Z,100060.69
2022-11-21T10:20:44.021Z,100065.13
2022-11-21T10:23:44.612Z,100050.94
2022-11-21T10:26:16.374Z,100050.69
2022-11-21T10:29:04.703Z,100043.78
2022-11-21T10:31:38.522Z,100043.00
2022-11-21T11:05:51.848Z,99994.22
2022-11-21T12:47:11.987Z,99842.31
2022-11-21T13:34:41.302Z,99845.09
2022-11-21T14:49:27.576Z,99823.28
2022-11-21T16:53:55.813Z,99686.84
2022-11-21T17:31:06.621Z,99663.25
2022-11-21T18:15:11.046Z,99656.66
2022-11-21T20:27:29.335Z,99530.94
2022-11-21T20:35:28.684Z,99534.81
2022-11-21T20:57:30.562Z,99529.91
2022-11-21T21:00:58.179Z,99533.63
2022-11-21T21:21:16.822Z,99521.47
2022-11-21T22:49:11.777Z,99408.53
2022-11-21T23:02:11.528Z,99393.56
2022-11-21T23:11:28.686Z,99354.88
2022-11-21T23:34:17.232Z,99307.53
